Glenville, WV

9:10 AM EST on December 29, 2014 (GMT -0500)
Benedum | Change Station
CLOSE
Current Station
Airport
Location: Clarksburg,
Elevation: 1204 ft
Nearby Weather Stations

Elev 1204 ft 39.30 °N, 80.23 °W | Updated 17 minutes ago

Overcast
Overcast
33 °F
Feels Like 27 °F
N
7
Wind Variable Wind from NNE

Today
High -- | Low -- °F
--% Chance of Precip.
Yesterday
High -- | Low -- °F
Precip. -- in
7:41 AM 5:09 PM
First Quarter, 59% visible
Pressure 30.21 in
Visibility 7.0 miles
Clouds Overcast 3100 ft
Windchill 27 °F
Dew Point 32 °F
Humidity 96%
Rainfall 0.00 in
Snow Depth Not available.
UV 0 out of 12
Pollen .10 out of 12
Air Quality Not available.
Flu Activity Not available.
METAR KCKB 291353Z 02006KT 7SM OVC031 01/00 A3019 RMK AO2 SLP228 T00060000

More Conditions Fewer Conditions

Pressure 30.21 in
Visibility 7.0 miles
Clouds Overcast 3100 ft
Windchill 27 °F
Dew Point 32 °F
Humidity 96%
Rainfall 0.00 in
Snow Depth Not available.
UV 0 out of 12
Pollen .10 out of 12
Air Quality Not available.
Flu Activity Not available.
METAR KCKB 291353Z 02006KT 7SM OVC031 01/00 A3019 RMK AO2 SLP228 T00060000

More Conditions Fewer Conditions

10-Day Weather Forecast

Almanac

Astronomy

Dec. 29, 2014 Rise Set
Actual Time
Civil Twilight
Nautical Twilight
Astronomical Twilight
Moon
Length of Visible Light
Length of Day
Tomorrow will be .
, % of the Moon is Illuminated

Today's Extremes

State Highs State Lows

Community

WunderPhotos

Upload Photos

1,781,587 photos uploaded!

WunderBlogs® & News

Nearby

Air Quality

  Air Quality AQ Index Pollutant
Not available.

Snow Depth

Station Depth Elevation

Earthquake Activity

City Distance Mag. Time & Date
Minimum magnitude displayed is 2.5.

Coastal Water Temperatures

Place Temperature

Nearby Weather Stations